Time;durP1;ratioP1;P1;durP2;ratioP2;P2;SDS_P1;SDS_P2;PMS_P1;PMS_P2;Temp;Humidity;BMP_temperature;BMP_pressure;BME280_temperature;BME280_humidity;BME280_pressure;Samples;Min_cycle;Max_cycle;Signal;HPM_P1;HPM_P2
2022/07/12 00:01:14;;;;;;;;;10.00;10.00;;;;;20.43;51.35;99042.50;6261082;27;97859;-63
2022/07/12 00:04:19;;;;;;;;;11.00;10.00;;;;;20.49;51.54;99038.63;6243457;27;97414;-60
2022/07/12 00:07:22;;;;;;;;;11.00;11.00;;;;;20.54;51.55;99038.59;6243977;27;96732;-60
2022/07/12 00:10:26;;;;;;;;;10.00;10.00;;;;;20.57;51.49;99035.31;6261202;27;97634;-64
2022/07/12 00:13:30;;;;;;;;;8.00;8.00;;;;;20.60;51.58;99031.19;6242597;27;98690;-60
2022/07/12 00:16:33;;;;;;;;;9.00;9.00;;;;;20.64;51.46;99038.53;6262288;27;97542;-61
2022/07/12 00:19:38;;;;;;;;;10.20;10.20;;;;;20.68;51.58;99044.25;6261422;27;96728;-61
2022/07/12 00:22:41;;;;;;;;;10.00;10.00;;;;;20.65;51.55;99039.38;6261624;27;97481;-59
2022/07/12 00:25:45;;;;;;;;;9.20;8.80;;;;;20.64;51.73;99045.94;6261847;27;97555;-60
2022/07/12 00:28:49;;;;;;;;;12.80;11.80;;;;;20.60;51.85;99050.34;6256371;27;97524;-61
2022/07/12 00:31:53;;;;;;;;;12.00;11.00;;;;;20.58;52.50;99047.06;6258508;27;96702;-62
2022/07/12 00:34:57;;;;;;;;;12.20;12.20;;;;;20.58;52.18;99052.53;6260298;27;97508;-56
2022/07/12 00:38:01;;;;;;;;;13.40;12.40;;;;;20.64;52.08;99049.50;6255949;27;98181;-64
2022/07/12 00:41:04;;;;;;;;;13.00;13.00;;;;;20.71;52.16;99046.47;6261307;27;96481;-67
2022/07/12 00:44:08;;;;;;;;;12.40;12.40;;;;;20.77;52.14;99050.00;6259819;27;96663;-62
2022/07/12 00:47:29;;;;;;;;;12.40;12.40;;;;;20.81;51.99;99056.53;6261736;27;97488;-60
2022/07/12 00:50:35;;;;;;;;;12.75;12.75;;;;;20.84;51.68;99047.72;6222166;27;97095;-61
2022/07/12 00:53:38;;;;;;;;;12.75;12.25;;;;;20.87;51.90;99050.72;6261261;27;96571;-62
2022/07/12 00:56:41;;;;;;;;;8.00;8.00;;;;;20.89;51.93;99050.44;6265789;27;97612;-63
2022/07/12 00:59:45;;;;;;;;;9.60;9.60;;;;;20.87;51.69;99058.94;6246983;27;97035;-60
2022/07/12 01:02:48;;;;;;;;;14.25;14.00;;;;;20.90;51.59;99052.91;6263431;27;96929;-59
2022/07/12 01:05:54;;;;;;;;;10.00;10.00;;;;;20.91;51.88;99060.03;6264402;27;98810;-63
2022/07/12 01:08:59;;;;;;;;;12.60;12.00;;;;;20.93;51.87;99062.47;6246879;27;97063;-61
2022/07/12 01:12:03;;;;;;;;;10.00;10.00;;;;;20.92;51.75;99058.91;6246343;27;97456;-61
2022/07/12 01:15:10;;;;;;;;;9.75;9.75;;;;;20.98;51.96;99062.44;6264558;27;96792;-60
2022/07/12 01:18:14;;;;;;;;;10.20;10.20;;;;;20.95;52.21;99047.38;6246499;27;96964;-59
2022/07/12 01:21:23;;;;;;;;;12.00;12.00;;;;;21.01;52.24;99057.19;6264056;27;97372;-59
2022/07/12 01:24:28;;;;;;;;;10.00;10.00;;;;;21.03;51.92;99049.50;6263872;27;96285;-59
2022/07/12 01:27:32;;;;;;;;;12.00;12.00;;;;;21.07;51.99;99056.06;6245758;27;98990;-60
2022/07/12 01:30:39;;;;;;;;;9.75;9.75;;;;;21.11;51.75;99048.88;6246809;27;98495;-61
2022/07/12 01:33:44;;;;;;;;;10.00;10.00;;;;;21.15;52.02;99051.94;6246443;27;96660;-61
2022/07/12 01:36:47;;;;;;;;;12.60;11.60;;;;;21.12;51.53;99042.31;6245352;27;97445;-62
2022/07/12 01:39:55;;;;;;;;;11.00;10.60;;;;;21.07;51.62;99034.13;6244455;27;97298;-60
2022/07/12 01:42:59;;;;;;;;;14.00;14.00;;;;;21.15;51.86;99040.97;6263443;27;97459;-58
2022/07/12 01:46:03;;;;;;;;;11.20;11.20;;;;;21.13;51.49;99034.91;6264390;27;96803;-60
2022/07/12 01:49:06;;;;;;;;;12.00;12.00;;;;;21.12;51.77;99025.03;6245844;27;97363;-59
2022/07/12 01:52:10;;;;;;;;;12.20;12.20;;;;;21.13;51.61;99043.97;6263452;27;97620;-64
2022/07/12 01:55:15;;;;;;;;;11.00;11.00;;;;;21.14;51.68;99037.41;6263786;27;96784;-60
2022/07/12 01:58:18;;;;;;;;;11.00;11.00;;;;;21.16;52.02;99037.91;6264503;27;96636;-62
2022/07/12 02:01:22;;;;;;;;;10.80;10.80;;;;;21.16;52.17;99035.16;6253651;27;97407;-59
2022/07/12 02:04:25;;;;;;;;;15.00;13.00;;;;;21.15;52.01;99038.22;6263871;27;97500;-63
2022/07/12 02:07:29;;;;;;;;;4.40;4.40;;;;;21.16;51.95;99039.84;6263483;27;96996;-63
2022/07/12 02:10:34;;;;;;;;;8.60;8.00;;;;;21.15;52.40;99035.47;6264990;27;97035;-59
2022/07/12 02:13:38;;;;;;;;;11.00;10.00;;;;;21.11;52.42;99029.69;6264438;27;96802;-60
2022/07/12 02:16:42;;;;;;;;;8.75;8.75;;;;;21.02;52.29;99020.44;6246073;27;96682;-63
2022/07/12 02:19:46;;;;;;;;;9.00;8.00;;;;;21.00;52.27;99019.13;6265474;27;96951;-64
2022/07/12 02:22:49;;;;;;;;;10.00;10.00;;;;;21.23;52.37;99045.00;6266009;27;96452;-62
2022/07/12 02:25:54;;;;;;;;;8.00;8.00;;;;;21.23;52.16;99040.34;6245063;27;97431;-62
2022/07/12 02:28:58;;;;;;;;;10.50;10.50;;;;;21.24;52.31;99043.91;6263766;27;97409;-60
2022/07/12 02:32:02;;;;;;;;;11.00;11.00;;;;;21.20;52.22;99040.91;6263675;27;97080;-63
2022/07/12 02:35:06;;;;;;;;;10.75;10.25;;;;;21.18;52.59;99045.84;6244941;27;99349;-59
2022/07/12 02:38:09;;;;;;;;;12.00;11.00;;;;;21.18;52.14;99038.44;6262602;27;97245;-59
2022/07/12 02:41:14;;;;;;;;;13.80;13.40;;;;;21.24;52.05;99038.41;6264357;27;96547;-60
2022/07/12 02:44:17;;;;;;;;;10.40;10.20;;;;;21.26;52.15;99036.22;6228404;27;97792;-53
2022/07/12 02:47:20;;;;;;;;;10.00;10.00;;;;;21.27;51.95;99046.88;6261902;27;97264;-58
2022/07/12 02:50:24;;;;;;;;;11.80;10.40;;;;;21.28;51.87;99051.25;6264800;27;96454;-59
2022/07/12 02:53:27;;;;;;;;;13.40;12.60;;;;;21.29;52.17;99046.59;6263313;27;96702;-59
2022/07/12 02:56:32;;;;;;;;;11.00;11.00;;;;;21.29;52.30;99050.16;6244637;27;99388;-62
2022/07/12 02:59:36;;;;;;;;;12.00;12.00;;;;;21.30;52.21;99048.22;6262916;27;96391;-62
2022/07/12 03:02:39;;;;;;;;;15.40;13.40;;;;;21.31;52.06;99049.84;6259798;27;97070;-60
2022/07/12 03:05:43;;;;;;;;;13.40;13.40;;;;;21.29;52.00;99047.41;6243949;27;98103;-61
2022/07/12 03:08:47;;;;;;;;;11.00;10.25;;;;;21.29;52.29;99044.66;6246057;27;96702;-58
2022/07/12 03:11:52;;;;;;;;;11.75;11.75;;;;;21.31;52.36;99047.09;6262889;27;97414;-61
2022/07/12 03:14:55;;;;;;;;;12.60;12.60;;;;;21.31;52.31;99047.09;6244665;27;96684;-61
2022/07/12 03:17:59;;;;;;;;;11.00;10.80;;;;;21.31;52.25;99044.38;6261274;27;96530;-61
2022/07/12 03:21:03;;;;;;;;;11.00;10.75;;;;;21.30;51.90;99053.72;6244796;27;97443;-59
2022/07/12 03:24:06;;;;;;;;;15.50;14.50;;;;;21.31;52.09;99050.66;6263236;27;96855;-62
2022/07/12 03:27:11;;;;;;;;;12.00;10.50;;;;;21.35;52.21;99059.16;6261035;27;96718;-61
2022/07/12 03:30:14;;;;;;;;;13.00;12.60;;;;;21.19;51.96;99036.53;6262405;27;97002;-59
2022/07/12 03:33:20;;;;;;;;;11.60;11.60;;;;;21.36;52.05;99064.34;6259415;27;97393;-62
2022/07/12 03:36:24;;;;;;;;;12.00;11.40;;;;;21.39;51.83;99061.03;6228324;27;97876;-59
2022/07/12 03:39:28;;;;;;;;;14.25;13.25;;;;;21.43;51.81;99064.84;6260166;27;98369;-60
2022/07/12 03:42:38;;;;;;;;;13.00;13.00;;;;;21.48;51.26;99070.28;6262609;27;96734;-64
2022/07/12 03:45:43;;;;;;;;;12.00;11.00;;;;;21.51;51.37;99072.44;6260326;27;97454;-58
2022/07/12 03:48:48;;;;;;;;;14.25;13.25;;;;;21.54;51.36;99065.56;6262204;27;97380;-65
2022/07/12 03:51:52;;;;;;;;;11.60;11.60;;;;;21.56;51.33;99063.34;6262401;27;96937;-61
2022/07/12 03:54:55;;;;;;;;;12.50;12.00;;;;;21.57;51.52;99064.97;6262002;27;97485;-59
2022/07/12 03:58:00;;;;;;;;;15.40;14.40;;;;;21.59;51.28;99057.28;6226094;27;98476;-62
2022/07/12 04:01:03;;;;;;;;;12.25;12.00;;;;;21.59;51.38;99049.88;6261848;27;96961;-61
2022/07/12 04:04:07;;;;;;;;;11.00;11.00;;;;;21.40;51.30;99012.50;6265345;27;96684;-61
2022/07/12 04:07:10;;;;;;;;;12.00;12.00;;;;;21.67;51.66;99050.34;6259014;27;97418;-59
2022/07/12 04:10:14;;;;;;;;;11.33;11.00;;;;;21.70;51.40;99047.03;6244659;27;99421;-58
2022/07/12 04:13:19;;;;;;;;;13.00;13.00;;;;;21.66;51.67;99048.69;6260968;27;97570;-61
2022/07/12 04:16:23;;;;;;;;;14.00;13.00;;;;;21.68;51.53;99049.25;6260822;27;97462;-60
2022/07/12 04:19:27;;;;;;;;;11.00;11.00;;;;;21.55;51.39;99029.59;6261508;27;97403;-61
2022/07/12 04:22:30;;;;;;;;;10.00;10.00;;;;;21.73;51.59;99050.00;6244054;27;98372;-61
2022/07/12 04:25:34;;;;;;;;;12.00;12.00;;;;;21.77;51.73;99050.22;6259992;27;97918;-61
2022/07/12 04:28:39;;;;;;;;;11.00;10.00;;;;;21.81;51.73;99049.38;6254831;27;97005;-61
2022/07/12 04:31:42;;;;;;;;;15.00;14.50;;;;;21.67;51.89;99026.47;6258352;27;96924;-60
2022/07/12 04:34:46;;;;;;;;;12.00;12.00;;;;;21.89;51.96;99048.72;6256271;27;96471;-61
2022/07/12 04:37:50;;;;;;;;;12.60;11.60;;;;;21.94;51.32;99050.66;6256188;27;97464;-60
2022/07/12 04:40:53;;;;;;;;;12.80;12.60;;;;;21.96;51.30;99049.22;6239255;27;97309;-58
2022/07/12 04:43:58;;;;;;;;;16.00;15.00;;;;;22.04;51.33;99056.81;6261314;27;97163;-61
2022/07/12 04:47:02;;;;;;;;;11.50;11.00;;;;;22.07;51.11;99049.09;6265206;27;97442;-60
2022/07/12 04:50:07;;;;;;;;;7.60;7.60;;;;;22.11;51.12;99047.41;6264241;27;97203;-56
2022/07/12 04:53:10;;;;;;;;;11.00;11.00;;;;;22.18;50.87;99053.38;6262086;27;98012;-66
2022/07/12 04:56:14;;;;;;;;;11.00;10.60;;;;;22.23;51.09;99062.38;6231121;27;97492;-61
2022/07/12 04:59:19;;;;;;;;;11.00;11.00;;;;;22.26;50.94;99050.78;6263451;27;97984;-64
2022/07/12 05:02:22;;;;;;;;;9.80;9.80;;;;;22.35;51.36;99059.19;6263926;27;97482;-60
2022/07/12 05:05:25;;;;;;;;;9.80;9.60;;;;;22.41;51.17;99055.28;6247211;27;97444;-64
2022/07/12 05:08:28;;;;;;;;;13.00;12.40;;;;;22.42;50.68;99055.00;6265871;27;97446;-58
2022/07/12 05:11:34;;;;;;;;;13.50;12.50;;;;;22.46;50.18;99049.72;6265443;27;97001;-58
2022/07/12 05:14:38;;;;;;;;;8.25;8.25;;;;;22.55;50.37;99044.38;6263371;27;98036;-61
2022/07/12 05:17:42;;;;;;;;;12.00;10.00;;;;;22.61;49.94;99041.25;6263964;27;97114;-59
2022/07/12 05:20:45;;;;;;;;;12.00;11.00;;;;;22.67;49.26;99026.34;6265564;27;97713;-61
2022/07/12 05:23:53;;;;;;;;;9.00;9.00;;;;;22.79;49.66;99045.16;6264398;27;97532;-62
2022/07/12 05:26:57;;;;;;;;;9.00;9.00;;;;;22.89;48.48;99040.31;6265295;27;96499;-56
2022/07/12 05:30:02;;;;;;;;;7.60;6.40;;;;;22.99;48.52;99036.59;6265700;27;97027;-60
2022/07/12 05:33:08;;;;;;;;;7.40;7.40;;;;;23.15;47.19;99045.41;6265555;27;96714;-64
2022/07/12 05:36:11;;;;;;;;;8.50;7.50;;;;;23.27;48.03;99037.50;6265501;27;96889;-57
2022/07/12 05:39:14;;;;;;;;;8.75;8.00;;;;;23.39;48.10;99035.09;6265853;27;97135;-61
2022/07/12 05:42:18;;;;;;;;;7.80;7.00;;;;;23.53;47.70;99043.41;6263244;27;96899;-60
2022/07/12 05:45:23;;;;;;;;;8.00;7.80;;;;;23.60;46.86;99039.13;6252720;27;98009;-63
2022/07/12 05:48:27;;;;;;;;;6.60;6.60;;;;;23.66;46.86;99046.19;6249778;27;97680;-59
2022/07/12 05:54:51;;;;;;;;;9.50;9.00;;;;;23.78;46.56;99042.13;6214773;27;98385;-63
2022/07/12 05:57:54;;;;;;;;;12.50;12.50;;;;;23.83;46.41;99042.84;6252002;27;97750;-64
2022/07/12 06:00:59;;;;;;;;;11.50;11.50;;;;;23.87;45.99;99045.81;6250981;27;96883;-64
2022/07/12 06:04:02;;;;;;;;;8.00;8.00;;;;;23.90;45.42;99045.19;6250406;27;97527;-56
2022/07/12 06:07:06;;;;;;;;;7.00;7.00;;;;;23.96;45.48;99044.78;6256886;27;96886;-66
2022/07/12 06:10:10;;;;;;;;;10.00;10.00;;;;;24.02;45.94;99042.75;6248963;27;97003;-64
2022/07/12 06:13:15;;;;;;;;;11.80;11.60;;;;;24.13;45.95;99038.69;6250774;27;97378;-61
2022/07/12 06:16:20;;;;;;;;;10.00;10.00;;;;;24.27;45.92;99045.03;6215295;27;96717;-62
2022/07/12 06:19:25;;;;;;;;;8.00;8.00;;;;;24.42;45.34;99052.97;6256280;27;96803;-66
2022/07/12 06:22:28;;;;;;;;;7.40;7.00;;;;;24.55;44.49;99046.63;6249635;27;97186;-62
2022/07/12 06:25:32;;;;;;;;;7.00;7.00;;;;;24.66;44.33;99038.13;6250796;27;97032;-64
2022/07/12 06:28:46;;;;;;;;;8.60;8.60;;;;;24.74;43.39;99046.47;6247301;27;97317;-65
2022/07/12 06:31:50;;;;;;;;;13.20;13.20;;;;;24.78;42.82;99036.44;6248993;27;97487;-60
2022/07/12 06:34:54;;;;;;;;;9.40;8.80;;;;;24.88;42.94;99046.44;6252513;27;97483;-60
2022/07/12 06:37:57;;;;;;;;;11.00;11.00;;;;;24.94;43.33;99037.75;6248581;27;97452;-60
2022/07/12 06:41:00;;;;;;;;;7.50;7.50;;;;;25.03;43.18;99035.06;6251279;27;97586;-59
2022/07/12 06:44:04;;;;;;;;;7.00;7.00;;;;;25.13;42.95;99047.78;6253748;27;97387;-67
2022/07/12 06:47:10;;;;;;;;;8.20;8.20;;;;;25.12;41.82;99044.22;6248830;27;97501;-57
2022/07/12 06:50:14;;;;;;;;;8.60;8.00;;;;;25.15;42.08;99045.53;6251165;27;96929;-62
2022/07/12 06:53:17;;;;;;;;;10.40;9.00;;;;;25.14;41.99;99058.53;6247838;27;97098;-58
2022/07/12 06:56:21;;;;;;;;;6.00;6.00;;;;;25.14;42.36;99050.25;6246349;27;97024;-58
2022/07/12 06:59:24;;;;;;;;;6.80;6.80;;;;;25.17;42.49;99051.56;6244153;27;97257;-57
2022/07/12 07:02:31;;;;;;;;;10.40;10.00;;;;;25.19;42.62;99061.16;6254225;27;96849;-65
2022/07/12 07:05:36;;;;;;;;;12.00;11.50;;;;;25.22;42.64;99054.19;6256287;27;98076;-55
2022/07/12 07:08:39;;;;;;;;;11.00;11.00;;;;;25.24;42.39;99055.50;6250463;27;97506;-57
2022/07/12 07:11:43;;;;;;;;;9.00;8.00;;;;;25.27;42.95;99049.34;6248734;27;96648;-59
2022/07/12 07:14:46;;;;;;;;;12.00;12.00;;;;;25.32;42.44;99059.44;6230054;27;97972;-63
2022/07/12 07:17:51;;;;;;;;;11.00;10.00;;;;;25.33;41.93;99058.31;6249648;27;97239;-58
2022/07/12 07:20:55;;;;;;;;;8.00;8.00;;;;;25.33;42.19;99066.59;6264064;27;97763;-57
2022/07/12 07:23:59;;;;;;;;;25.25;25.00;;;;;25.30;42.27;99059.78;6245999;27;96867;-58
2022/07/12 07:27:02;;;;;;;;;11.00;10.50;;;;;25.30;42.42;99059.78;6249590;27;96714;-57
2022/07/12 07:33:29;;;;;;;;;6.60;6.00;;;;;25.29;42.44;99060.09;6249867;27;97435;-57
2022/07/12 07:36:33;;;;;;;;;8.60;8.60;;;;;25.32;42.74;99070.50;6263347;27;96822;-61
2022/07/12 07:39:36;;;;;;;;;7.20;7.20;;;;;25.35;42.42;99067.13;6245449;27;99783;-59
2022/07/12 07:42:39;;;;;;;;;6.75;6.75;;;;;25.38;42.09;99061.78;6244876;27;96828;-63
2022/07/12 07:45:43;;;;;;;;;8.20;8.20;;;;;25.44;42.10;99070.75;6263499;27;97458;-62
2022/07/12 07:48:48;;;;;;;;;10.00;9.00;;;;;25.52;42.03;99071.91;6262935;27;96709;-58
2022/07/12 07:51:51;;;;;;;;;8.20;8.00;;;;;25.60;41.48;99071.22;6244318;27;100322;-66
2022/07/12 07:54:57;;;;;;;;;8.00;8.00;;;;;25.66;41.18;99078.22;6263462;27;96752;-61
2022/07/12 07:58:01;;;;;;;;;7.80;7.80;;;;;25.72;41.21;99069.47;6262751;27;97577;-58
2022/07/12 08:01:05;;;;;;;;;7.50;7.50;;;;;25.81;41.20;99070.34;6244397;27;98046;-56
2022/07/12 08:04:10;;;;;;;;;9.60;9.40;;;;;25.93;41.47;99068.94;6242692;27;97125;-63
2022/07/12 08:07:14;;;;;;;;;6.50;6.50;;;;;26.11;41.07;99065.94;6262419;27;96688;-64
2022/07/12 08:10:37;;;;;;;;;7.00;7.00;;;;;26.28;40.43;99060.50;6261615;27;96775;-60
2022/07/12 08:13:41;;;;;;;;;7.50;6.50;;;;;26.51;39.24;99066.75;6262033;27;96802;-59
2022/07/12 08:16:44;;;;;;;;;5.00;5.00;;;;;26.71;39.23;99070.84;6261918;27;96449;-58
2022/07/12 08:19:49;;;;;;;;;8.00;7.00;;;;;26.92;38.85;99073.84;6261569;27;97391;-59
2022/07/12 08:22:52;;;;;;;;;7.00;7.00;;;;;27.05;38.99;99072.84;6261675;27;96538;-61
2022/07/12 08:25:55;;;;;;;;;8.00;7.60;;;;;27.07;38.11;99071.38;6257608;27;96942;-59
2022/07/12 08:28:59;;;;;;;;;8.00;8.00;;;;;27.12;38.31;99079.50;6243512;27;97590;-60
2022/07/12 08:32:02;;;;;;;;;6.40;6.40;;;;;27.13;38.54;99081.16;6262050;27;96993;-63
2022/07/12 08:35:08;;;;;;;;;6.25;5.25;;;;;27.15;38.23;99080.81;6262754;27;96859;-63
2022/07/12 08:38:11;;;;;;;;;6.80;6.80;;;;;27.26;37.82;99064.72;6262697;27;97708;-61
2022/07/12 08:41:16;;;;;;;;;6.00;6.00;;;;;27.34;37.29;99058.34;6262177;27;97061;-61
2022/07/12 08:44:19;;;;;;;;;6.00;6.00;;;;;27.49;37.46;99046.78;6261895;27;96513;-63
2022/07/12 08:47:22;;;;;;;;;7.00;7.00;;;;;27.62;36.26;99050.47;6262062;27;96685;-62
2022/07/12 08:50:27;;;;;;;;;9.00;8.00;;;;;27.69;36.03;99057.16;6261961;27;96562;-63
2022/07/12 08:53:31;;;;;;;;;6.00;6.00;;;;;27.83;36.30;99037.56;6262202;27;97504;-63
2022/07/12 08:56:37;;;;;;;;;6.00;5.00;;;;;27.92;35.00;99043.88;6262407;27;96504;-64
2022/07/12 08:59:40;;;;;;;;;6.00;6.00;;;;;27.90;35.48;99040.63;6262431;27;97428;-59
2022/07/12 09:02:46;;;;;;;;;10.00;9.60;;;;;27.85;35.50;99043.59;6246810;27;96698;-60
2022/07/12 09:05:53;;;;;;;;;6.00;6.00;;;;;27.94;35.71;99045.19;6249465;27;97257;-62
2022/07/12 09:08:57;;;;;;;;;6.40;6.00;;;;;28.05;35.54;99025.41;6246717;27;97033;-59
2022/07/12 09:12:01;;;;;;;;;5.00;5.00;;;;;28.38;34.89;99038.31;6246291;27;96274;-62
2022/07/12 09:15:19;;;;;;;;;9.00;8.60;;;;;28.53;33.95;99048.00;6237099;27;98375;-59
2022/07/12 09:18:28;;;;;;;;;5.00;5.00;;;;;28.64;33.36;99053.94;6233672;27;97700;-62
2022/07/12 09:21:33;;;;;;;;;6.00;6.00;;;;;28.70;33.92;99056.19;6215000;27;100117;-60
2022/07/12 09:24:36;;;;;;;;;6.40;6.40;;;;;28.73;34.30;99061.13;6222817;27;98348;-60
2022/07/12 09:27:40;;;;;;;;;7.00;7.00;;;;;28.81;34.24;99063.03;6253190;27;97529;-58
2022/07/12 09:30:52;;;;;;;;;7.00;7.00;;;;;28.71;35.67;99060.63;6253583;27;96880;-59
2022/07/12 09:37:26;;;;;;;;;7.40;7.40;;;;;28.25;37.79;99108.66;6234460;27;97282;-58
2022/07/12 09:40:30;;;;;;;;;8.00;8.00;;;;;27.88;38.22;99115.78;6250271;27;96539;-61
2022/07/12 09:43:33;;;;;;;;;5.00;5.00;;;;;27.51;37.54;99120.06;6249671;27;96692;-57
2022/07/12 09:46:38;;;;;;;;;3.80;3.80;;;;;27.17;38.11;99108.19;6242595;27;97019;-62
2022/07/12 09:49:42;;;;;;;;;4.40;4.40;;;;;26.87;39.12;99096.13;6253057;27;96343;-62
2022/07/12 09:52:51;;;;;;;;;1.20;1.20;;;;;26.55;39.66;99091.78;6255787;27;97494;-61
2022/07/12 09:55:55;;;;;;;;;4.00;4.00;;;;;26.41;40.54;99088.34;6251283;27;96881;-62
2022/07/12 09:59:04;;;;;;;;;4.00;4.00;;;;;26.29;41.30;99089.75;6250444;27;97069;-60
2022/07/12 10:02:09;;;;;;;;;6.00;6.00;;;;;26.28;41.94;99090.09;6259618;27;97024;-61
2022/07/12 10:05:13;;;;;;;;;6.00;5.80;;;;;26.30;42.29;99073.97;6280809;27;98189;-60
2022/07/12 10:08:21;;;;;;;;;4.00;4.00;;;;;26.45;42.29;99079.06;6230311;27;96933;-57
2022/07/12 10:11:25;;;;;;;;;4.00;4.00;;;;;26.63;42.41;99082.72;6265598;27;96437;-57
2022/07/12 10:14:52;;;;;;;;;6.50;6.50;;;;;26.84;41.94;99072.63;6265441;27;96967;-61
2022/07/12 10:17:58;;;;;;;;;6.00;6.00;;;;;27.08;42.24;99069.41;6265147;27;96675;-62
2022/07/12 10:21:19;;;;;;;;;11.20;10.80;;;;;27.31;40.96;99065.34;6264987;27;96551;-60
2022/07/12 10:24:55;;;;;;;;;4.00;4.00;;;;;27.45;40.83;99066.00;6265335;27;96699;-62
2022/07/12 10:28:00;;;;;;;;;4.00;4.00;;;;;27.55;40.66;99053.78;6245852;27;97632;-61
2022/07/12 10:31:08;;;;;;;;;4.20;4.20;;;;;27.63;40.31;99065.97;6264637;27;96669;-63
2022/07/12 10:34:21;;;;;;;;;6.75;6.75;;;;;27.68;40.24;99052.75;6264968;27;96266;-58
2022/07/12 10:37:24;;;;;;;;;6.00;5.00;;;;;27.77;40.03;99052.72;6245005;27;96810;-62
2022/07/12 10:40:35;;;;;;;;;6.40;6.40;;;;;27.91;39.98;99058.88;6240403;27;99460;-60
2022/07/12 10:47:00;;;;;;;;;6.40;6.00;;;;;28.20;37.34;99041.53;6231562;27;97187;-61
2022/07/12 10:50:04;;;;;;;;;8.00;8.00;;;;;28.20;36.68;99036.75;6248625;27;98022;-60
2022/07/12 10:53:25;;;;;;;;;6.33;6.00;;;;;28.47;37.68;99037.44;6250387;27;97519;-63
2022/07/12 10:56:38;;;;;;;;;6.00;6.00;;;;;28.53;36.11;99034.13;6247851;27;96939;-56
2022/07/12 10:59:45;;;;;;;;;8.67;8.67;;;;;28.57;35.94;99031.50;6255578;27;96613;-60
2022/07/12 11:02:48;;;;;;;;;7.00;7.00;;;;;28.66;36.04;99037.78;6250686;27;97620;-63
2022/07/12 11:05:52;;;;;;;;;6.60;6.00;;;;;28.79;37.37;99032.00;6231126;27;96718;-62
2022/07/12 11:08:59;;;;;;;;;11.00;10.20;;;;;28.91;34.84;99028.50;6249173;27;97418;-61
2022/07/12 11:12:07;;;;;;;;;5.60;5.60;;;;;28.97;34.59;99032.69;6248725;27;98643;-60
2022/07/12 11:15:13;;;;;;;;;6.00;6.00;;;;;29.07;34.85;99039.78;6250276;27;96472;-61
2022/07/12 11:18:28;;;;;;;;;8.00;8.00;;;;;29.18;35.41;99038.22;6249534;27;97377;-66
2022/07/12 11:21:32;;;;;;;;;8.50;8.50;;;;;29.25;34.50;99035.72;6250886;27;97697;-62
2022/07/12 11:24:36;;;;;;;;;7.00;6.50;;;;;29.26;33.81;99040.13;6253542;27;97512;-60
2022/07/12 11:27:41;;;;;;;;;7.00;7.00;;;;;29.31;33.62;99025.22;6237319;27;97336;-60
2022/07/12 11:30:49;;;;;;;;;5.00;5.00;;;;;29.37;33.66;99021.88;6247200;27;97544;-59
2022/07/12 11:33:53;;;;;;;;;5.50;5.50;;;;;29.42;33.27;99020.88;6247951;27;97490;-60
2022/07/12 11:36:57;;;;;;;;;4.00;4.00;;;;;29.44;32.98;99011.03;6230666;27;96954;-62
2022/07/12 11:40:01;;;;;;;;;6.00;5.40;;;;;29.38;33.49;99020.72;6248343;27;97578;-60
2022/07/12 11:43:06;;;;;;;;;6.00;5.60;;;;;29.44;33.70;99010.22;6246785;27;97116;-61
2022/07/12 11:46:10;;;;;;;;;4.60;4.60;;;;;29.50;33.37;99014.41;6239501;27;97056;-59
2022/07/12 11:49:16;;;;;;;;;3.00;3.00;;;;;29.63;33.34;99002.16;6237740;28;96804;-63
2022/07/12 11:52:20;;;;;;;;;4.00;4.00;;;;;29.72;34.03;99002.88;6249745;27;98637;-56
2022/07/12 11:55:24;;;;;;;;;5.00;4.00;;;;;29.74;32.47;99005.31;6261379;27;97095;-64
2022/07/12 11:58:32;;;;;;;;;3.60;3.60;;;;;29.67;32.61;99001.13;6260970;27;97437;-60
2022/07/12 12:01:35;;;;;;;;;3.00;3.00;;;;;29.60;32.01;99017.56;6261184;27;97178;-66
2022/07/12 12:04:47;;;;;;;;;4.00;4.00;;;;;29.51;32.18;99018.81;6243367;27;99525;-61
2022/07/12 12:07:50;;;;;;;;;3.00;3.00;;;;;29.48;32.07;99019.47;6263252;27;97581;-60
2022/07/12 12:10:59;;;;;;;;;3.00;2.00;;;;;29.54;32.41;99007.81;6244587;27;96839;-66
2022/07/12 12:14:05;;;;;;;;;3.60;3.60;;;;;29.61;32.25;99002.53;6262770;27;96395;-61
2022/07/12 12:17:14;;;;;;;;;5.00;4.40;;;;;29.67;31.48;98995.56;6262792;27;97521;-63
2022/07/12 12:20:20;;;;;;;;;4.20;4.20;;;;;29.77;32.36;98999.88;6241586;27;98418;-60
2022/07/12 12:23:23;;;;;;;;;2.00;2.00;;;;;29.82;31.81;98994.06;6262885;27;96420;-63
2022/07/12 12:26:32;;;;;;;;;2.00;2.00;;;;;29.78;31.34;98995.13;6262684;27;97420;-59
2022/07/12 12:29:42;;;;;;;;;4.00;3.00;;;;;29.74;31.31;98988.63;6262581;27;96776;-63
2022/07/12 12:32:54;;;;;;;;;4.60;4.00;;;;;29.73;31.85;98998.94;6262329;27;97468;-62
2022/07/12 12:36:12;;;;;;;;;4.40;4.40;;;;;29.73;31.45;98995.34;6261566;27;97675;-61
2022/07/12 12:39:30;;;;;;;;;3.00;3.00;;;;;29.85;31.40;98996.19;6262382;27;97511;-56
2022/07/12 12:42:33;;;;;;;;;2.75;2.75;;;;;29.87;31.86;98990.25;6261753;27;97526;-63
2022/07/12 12:45:50;;;;;;;;;4.25;4.25;;;;;29.90;31.56;98984.06;6262471;27;97443;-57
2022/07/12 12:48:53;;;;;;;;;4.00;4.00;;;;;29.87;30.75;98985.50;6261844;27;97507;-56
2022/07/12 12:51:59;;;;;;;;;3.60;3.60;;;;;29.89;31.76;98987.97;6264327;27;97264;-60
2022/07/12 12:55:02;;;;;;;;;5.00;5.00;;;;;29.81;31.28;98980.53;6263188;27;97183;-59
2022/07/12 12:58:06;;;;;;;;;2.60;2.60;;;;;29.57;32.04;98965.44;6265368;27;97202;-63
2022/07/12 13:01:10;;;;;;;;;3.00;3.00;;;;;29.81;32.17;98995.22;6263833;27;97948;-63
2022/07/12 13:04:14;;;;;;;;;3.00;3.00;;;;;29.81;32.18;99006.34;6266656;27;96227;-60
2022/07/12 13:07:18;;;;;;;;;8.20;7.60;;;;;29.64;32.31;99023.25;6265396;27;97867;-62
2022/07/12 13:10:21;;;;;;;;;5.00;5.00;;;;;29.38;33.66;99015.19;6246248;27;98400;-58
2022/07/12 13:13:25;;;;;;;;;5.60;5.60;;;;;29.23;34.58;99041.59;6241455;27;98440;-57
2022/07/12 13:16:29;;;;;;;;;7.00;7.00;;;;;28.96;35.70;99033.84;6240926;28;96553;-66
2022/07/12 13:19:33;;;;;;;;;3.00;3.00;;;;;28.71;35.89;99027.34;6259979;27;98005;-62
2022/07/12 13:22:37;;;;;;;;;2.00;2.00;;;;;28.55;35.92;99020.72;6266431;27;97039;-59
2022/07/12 13:25:40;;;;;;;;;5.00;5.00;;;;;28.37;36.58;99031.13;6266483;27;96513;-57
2022/07/12 13:28:44;;;;;;;;;5.00;5.00;;;;;28.23;36.43;99018.66;6265312;27;96846;-67
2022/07/12 13:31:48;;;;;;;;;3.00;3.00;;;;;28.06;36.21;99025.06;6266323;27;97121;-61
2022/07/12 13:34:59;;;;;;;;;4.25;4.25;;;;;27.94;37.62;99024.97;6265720;27;97859;-59
2022/07/12 13:38:03;;;;;;;;;5.00;5.00;;;;;27.88;38.08;99015.22;6265850;27;97390;-57
2022/07/12 13:41:06;;;;;;;;;5.40;5.00;;;;;27.86;38.40;99014.72;6247567;27;96944;-64
2022/07/12 13:44:10;;;;;;;;;4.60;3.80;;;;;27.80;38.58;99014.13;6265188;27;97262;-61
2022/07/12 13:47:25;;;;;;;;;4.60;4.60;;;;;27.74;38.73;99011.84;6264824;27;96750;-61
2022/07/12 13:50:29;;;;;;;;;3.00;3.00;;;;;27.66;38.42;99007.94;6247510;27;97078;-61
2022/07/12 13:53:35;;;;;;;;;7.00;7.00;;;;;27.76;39.16;99009.56;6266435;27;97506;-60
2022/07/12 13:56:39;;;;;;;;;5.00;5.00;;;;;27.82;38.45;99019.31;6265634;27;97455;-62
2022/07/12 13:59:42;;;;;;;;;4.00;4.00;;;;;27.86;37.64;99018.31;6265397;27;97466;-61
2022/07/12 14:02:48;;;;;;;;;5.00;4.40;;;;;27.87;38.39;99006.06;6263708;27;97456;-61
2022/07/12 14:05:57;;;;;;;;;5.00;5.00;;;;;27.89;38.09;99000.22;6246691;27;96717;-59
2022/07/12 14:09:01;;;;;;;;;6.00;6.00;;;;;27.91;37.43;98995.94;6264357;27;97068;-63
2022/07/12 14:12:04;;;;;;;;;2.40;2.40;;;;;27.93;36.94;99003.94;6265620;27;97466;-60
2022/07/12 14:15:14;;;;;;;;;3.40;3.00;;;;;27.90;36.67;99007.38;6265100;27;96562;-63
2022/07/12 14:18:19;;;;;;;;;4.00;4.00;;;;;27.89;36.99;99011.31;6247432;27;96589;-62
2022/07/12 14:21:23;;;;;;;;;2.50;2.50;;;;;27.90;37.04;99004.63;6264984;27;96314;-59
2022/07/12 14:24:26;;;;;;;;;4.00;3.75;;;;;27.76;36.92;99004.81;6264834;27;96851;-58
2022/07/12 14:27:29;;;;;;;;;5.00;4.60;;;;;27.75;36.28;99002.41;6253599;27;97318;-58
2022/07/12 14:30:33;;;;;;;;;3.50;3.50;;;;;27.67;36.46;99006.00;6261979;27;96585;-62
2022/07/12 14:33:38;;;;;;;;;5.60;5.60;;;;;27.52;36.08;99010.09;6263563;27;97000;-63
2022/07/12 14:36:41;;;;;;;;;5.50;5.50;;;;;27.42;36.54;99002.94;6244323;27;97187;-63